createdAt,value
2022-09-28T00:00:47.805Z,1.30
2022-09-28T00:03:34.110Z,0.97
2022-09-28T00:06:21.680Z,1.07
2022-09-28T00:09:07.252Z,1.23
2022-09-28T00:11:53.940Z,0.97
2022-09-28T00:14:40.609Z,1.33
2022-09-28T00:17:26.633Z,1.03
2022-09-28T00:20:12.531Z,1.20
2022-09-28T00:22:58.122Z,1.10
2022-09-28T00:25:43.359Z,1.27
2022-09-28T00:28:28.494Z,1.10
2022-09-28T00:31:13.608Z,0.90
2022-09-28T00:34:00.426Z,1.00
2022-09-28T00:36:46.967Z,1.53
2022-09-28T00:39:32.531Z,1.53
2022-09-28T00:42:23.094Z,1.27
2022-09-28T00:45:09.971Z,1.23
2022-09-28T00:47:59.029Z,1.17
2022-09-28T00:50:45.926Z,1.10
2022-09-28T00:53:35.032Z,1.10
2022-09-28T00:56:23.178Z,2.00
2022-09-28T00:59:09.313Z,2.10
2022-09-28T01:01:54.801Z,0.97
2022-09-28T01:04:40.175Z,1.43
2022-09-28T01:07:25.448Z,1.13
2022-09-28T01:10:10.976Z,1.07
2022-09-28T01:12:56.499Z,1.27
2022-09-28T01:15:56.863Z,0.93
2022-09-28T01:18:51.348Z,2.10
2022-09-28T01:22:12.398Z,0.90
2022-09-28T01:25:12.228Z,1.33
2022-09-28T01:28:18.761Z,1.43
2022-09-28T01:31:16.815Z,0.80
2022-09-28T01:34:15.286Z,0.93
2022-09-28T01:37:06.495Z,0.93
2022-09-28T01:39:54.555Z,1.37
2022-09-28T01:42:43.517Z,0.73
2022-09-28T01:45:35.650Z,0.60
2022-09-28T01:48:31.032Z,0.80
2022-09-28T01:51:29.184Z,0.80
2022-09-28T01:54:21.218Z,1.00
2022-09-28T01:57:21.916Z,0.87
2022-09-28T02:00:13.327Z,1.07
2022-09-28T02:03:12.233Z,0.77
2022-09-28T02:06:08.591Z,1.23
2022-09-28T02:09:00.019Z,0.60
2022-09-28T02:12:02.971Z,0.97
2022-09-28T02:17:35.492Z,0.67
2022-09-28T02:20:23.451Z,1.47
2022-09-28T02:23:09.720Z,0.80
2022-09-28T02:26:04.052Z,1.27
2022-09-28T02:28:50.176Z,0.80
2022-09-28T02:31:35.678Z,1.57
2022-09-28T02:34:21.541Z,1.33
2022-09-28T02:37:07.345Z,0.67
2022-09-28T02:39:52.674Z,1.13
2022-09-28T02:42:52.060Z,0.90
2022-09-28T02:45:49.771Z,1.60
2022-09-28T02:49:27.838Z,3.37
2022-09-28T02:52:21.149Z,4.07
2022-09-28T02:55:15.563Z,3.03
2022-09-28T02:58:16.674Z,2.60
2022-09-28T03:01:15.238Z,3.27
2022-09-28T03:04:12.396Z,4.53
2022-09-28T03:07:07.053Z,2.40
2022-09-28T03:10:19.524Z,3.27
2022-09-28T03:13:06.057Z,2.37
2022-09-28T03:15:51.987Z,2.40
2022-09-28T03:18:37.784Z,4.10
2022-09-28T03:21:23.770Z,3.30
2022-09-28T03:24:11.134Z,3.67
2022-09-28T03:26:56.716Z,3.93
2022-09-28T03:29:41.941Z,2.90
2022-09-28T03:32:27.609Z,3.07
2022-09-28T03:35:13.079Z,2.73
2022-09-28T03:37:58.315Z,2.97
2022-09-28T03:40:56.480Z,3.60
2022-09-28T03:43:42.266Z,5.53
2022-09-28T03:46:28.334Z,4.77
2022-09-28T03:49:17.836Z,3.40
2022-09-28T03:52:03.648Z,5.33
2022-09-28T03:54:49.472Z,4.43
2022-09-28T03:57:34.788Z,4.30
2022-09-28T04:00:20.285Z,3.90
2022-09-28T04:03:05.635Z,2.73
2022-09-28T04:05:52.948Z,3.80
2022-09-28T04:08:38.537Z,7.17
2022-09-28T04:11:24.233Z,4.53
2022-09-28T04:14:09.680Z,6.27
2022-09-28T04:16:55.741Z,7.13
2022-09-28T04:19:43.673Z,3.30
2022-09-28T04:22:38.073Z,6.50
2022-09-28T04:25:23.275Z,6.53
2022-09-28T04:28:28.073Z,5.43
2022-09-28T04:31:17.809Z,3.53
2022-09-28T04:34:03.449Z,6.00
2022-09-28T04:36:52.236Z,2.87
2022-09-28T04:39:38.253Z,4.43
2022-09-28T04:42:25.060Z,3.63
2022-09-28T04:45:11.000Z,3.30
2022-09-28T04:48:01.658Z,3.43
2022-09-28T04:51:22.514Z,3.47
2022-09-28T04:54:08.293Z,3.83
2022-09-28T04:56:55.407Z,4.27
2022-09-28T04:59:41.246Z,3.63
2022-09-28T05:02:27.786Z,3.77
2022-09-28T05:05:32.188Z,4.03
2022-09-28T05:08:29.869Z,3.57
2022-09-28T05:11:15.325Z,3.67
2022-09-28T05:14:00.956Z,3.53
2022-09-28T05:16:47.175Z,2.37
2022-09-28T05:19:44.609Z,3.93
2022-09-28T05:22:29.972Z,3.30
2022-09-28T05:25:15.171Z,3.97
2022-09-28T05:28:28.965Z,4.27
2022-09-28T05:31:32.916Z,3.17
2022-09-28T05:34:38.876Z,3.43
2022-09-28T05:37:24.163Z,2.07
2022-09-28T05:40:10.392Z,4.87
2022-09-28T05:43:01.940Z,2.43
2022-09-28T05:45:51.617Z,4.40
2022-09-28T05:48:40.813Z,2.60
2022-09-28T05:51:26.211Z,2.80
2022-09-28T05:54:11.416Z,6.67
2022-09-28T05:57:00.428Z,2.20
2022-09-28T05:59:45.956Z,4.20
2022-09-28T06:02:31.694Z,3.17
2022-09-28T06:05:18.076Z,2.60
2022-09-28T06:08:05.323Z,2.27
2022-09-28T06:10:51.132Z,1.70
2022-09-28T06:13:36.876Z,2.97
2022-09-28T06:16:22.178Z,2.40
2022-09-28T06:19:11.760Z,3.03
2022-09-28T06:22:26.284Z,2.93
2022-09-28T06:25:27.671Z,2.13
2022-09-28T06:28:14.760Z,4.03
2022-09-28T06:31:01.115Z,3.93
2022-09-28T06:33:48.548Z,2.00
2022-09-28T06:36:33.890Z,3.53
2022-09-28T06:39:19.123Z,2.83
2022-09-28T06:42:04.422Z,2.67
2022-09-28T06:45:11.130Z,1.70
2022-09-28T06:48:15.429Z,3.50
2022-09-28T06:51:01.291Z,1.60
2022-09-28T06:53:53.922Z,1.93
2022-09-28T06:56:55.446Z,3.40
2022-09-28T06:59:41.790Z,2.73
2022-09-28T07:02:27.416Z,3.03
2022-09-28T07:05:15.810Z,1.53
2022-09-28T07:08:33.578Z,3.57
2022-09-28T07:11:27.041Z,2.23
2022-09-28T07:14:47.706Z,2.93
2022-09-28T07:17:43.050Z,3.30
2022-09-28T07:20:49.956Z,1.67
2022-09-28T07:23:49.258Z,1.73
2022-09-28T07:26:41.456Z,2.27
2022-09-28T07:30:02.029Z,2.10
2022-09-28T07:33:04.583Z,1.70
2022-09-28T07:36:17.850Z,1.10
2022-09-28T07:39:03.722Z,1.93
2022-09-28T07:41:49.137Z,1.23
2022-09-28T07:44:36.653Z,1.70
2022-09-28T07:47:30.905Z,2.47
2022-09-28T07:50:36.321Z,1.67
2022-09-28T07:53:31.082Z,2.33
2022-09-28T07:56:28.985Z,2.23
2022-09-28T07:59:20.972Z,2.20
2022-09-28T08:02:25.871Z,1.73
2022-09-28T08:05:12.497Z,2.53
2022-09-28T08:07:59.675Z,3.30
2022-09-28T08:10:47.781Z,1.50
2022-09-28T08:14:02.722Z,2.07
2022-09-28T08:17:12.450Z,1.73
2022-09-28T08:20:23.196Z,1.67
2022-09-28T08:23:10.307Z,1.70
2022-09-28T08:25:56.936Z,2.47
2022-09-28T08:28:43.538Z,1.80
2022-09-28T08:31:48.268Z,3.07
2022-09-28T08:34:56.090Z,1.63
2022-09-28T08:38:03.464Z,2.13
2022-09-28T08:41:25.724Z,1.93
2022-09-28T08:44:26.191Z,1.33
2022-09-28T08:48:03.870Z,2.10
2022-09-28T08:51:31.012Z,1.80
2022-09-28T08:54:37.089Z,1.77
2022-09-28T08:57:37.877Z,2.20
2022-09-28T09:00:33.605Z,1.67
2022-09-28T09:03:30.678Z,1.20
2022-09-28T09:07:32.087Z,1.10
2022-09-28T09:10:36.352Z,1.97
2022-09-28T09:13:48.039Z,1.93
2022-09-28T09:16:40.200Z,1.27
2022-09-28T09:19:44.218Z,1.80
2022-09-28T09:22:56.745Z,2.33
2022-09-28T09:25:50.717Z,1.20
2022-09-28T09:28:56.257Z,1.77
2022-09-28T09:32:03.143Z,1.80
2022-09-28T09:35:11.429Z,1.50
2022-09-28T09:38:52.897Z,1.97
2022-09-28T09:42:24.434Z,1.20
2022-09-28T09:45:46.884Z,1.60
2022-09-28T09:49:04.349Z,1.37
2022-09-28T09:52:14.715Z,1.10
2022-09-28T09:55:14.659Z,2.53
2022-09-28T09:58:40.062Z,0.73
2022-09-28T10:01:39.052Z,1.77
2022-09-28T10:04:46.802Z,1.67
2022-09-28T10:07:58.875Z,1.37
2022-09-28T10:11:20.641Z,1.23
2022-09-28T10:14:17.195Z,3.33
2022-09-28T10:17:12.027Z,1.73
2022-09-28T10:20:16.665Z,2.10
2022-09-28T10:23:29.929Z,1.07
2022-09-28T10:26:25.449Z,2.20
2022-09-28T10:29:19.722Z,1.10
2022-09-28T10:32:25.100Z,1.23
2022-09-28T10:35:27.165Z,1.20
2022-09-28T10:38:19.224Z,1.70
2022-09-28T10:41:13.543Z,1.20
2022-09-28T10:44:26.178Z,1.37
2022-09-28T10:47:32.703Z,1.00
2022-09-28T10:50:24.418Z,1.33
2022-09-28T10:53:26.470Z,1.33
2022-09-28T10:56:40.269Z,2.23
2022-09-28T10:59:29.833Z,1.23
2022-09-28T11:02:47.714Z,1.57
2022-09-28T11:05:38.775Z,1.60
2022-09-28T11:08:31.842Z,1.87
2022-09-28T11:11:20.171Z,2.90
2022-09-28T11:14:25.050Z,1.40
2022-09-28T11:17:33.619Z,1.47
2022-09-28T11:20:28.013Z,1.30
2022-09-28T11:23:26.044Z,2.07
2022-09-28T11:26:18.435Z,1.47
2022-09-28T11:29:07.465Z,1.60
2022-09-28T11:32:15.641Z,2.40
2022-09-28T11:35:32.134Z,1.87
2022-09-28T11:38:48.643Z,1.40
2022-09-28T11:42:05.218Z,1.00
2022-09-28T11:45:39.989Z,1.27
2022-09-28T11:48:37.828Z,1.57
2022-09-28T11:51:31.424Z,1.57
2022-09-28T11:54:28.975Z,1.48
2022-09-28T11:57:21.203Z,1.10
2022-09-28T12:00:14.691Z,1.20
2022-09-28T12:03:26.941Z,1.40
2022-09-28T12:06:17.972Z,3.07
2022-09-28T12:09:24.566Z,2.13
2022-09-28T12:12:34.767Z,1.70
2022-09-28T12:16:20.050Z,1.43
2022-09-28T12:19:01.927Z,1.00
2022-09-28T12:21:51.446Z,1.63
2022-09-28T12:24:48.218Z,1.47
2022-09-28T12:27:44.172Z,2.40
2022-09-28T12:30:36.612Z,2.20
2022-09-28T12:33:22.005Z,5.53
2022-09-28T12:36:32.584Z,1.63
2022-09-28T12:39:35.652Z,1.97
2022-09-28T12:43:03.405Z,2.73
2022-09-28T12:46:18.459Z,3.07
2022-09-28T12:52:43.652Z,2.97
2022-09-28T12:55:38.554Z,3.77
2022-09-28T12:58:32.877Z,2.93
2022-09-28T13:01:39.807Z,4.70
2022-09-28T13:04:37.220Z,3.67
2022-09-28T13:07:42.913Z,3.03
2022-09-28T13:10:43.040Z,2.10
2022-09-28T13:13:53.226Z,5.43
2022-09-28T13:16:49.008Z,6.90
2022-09-28T13:20:04.837Z,4.07
2022-09-28T13:23:09.850Z,9.13
2022-09-28T13:26:03.370Z,9.23
2022-09-28T13:28:51.414Z,8.10
2022-09-28T13:31:40.960Z,11.37
2022-09-28T13:34:29.745Z,5.83
2022-09-28T13:37:16.881Z,8.63
2022-09-28T13:40:06.284Z,10.70
2022-09-28T13:43:19.606Z,12.97
2022-09-28T13:46:34.701Z,7.90
2022-09-28T13:49:54.265Z,5.77
2022-09-28T13:52:49.667Z,12.57
2022-09-28T13:56:00.761Z,48.37
2022-09-28T13:58:57.888Z,55.17
2022-09-28T14:01:56.092Z,79.83
2022-09-28T14:05:23.556Z,63.67
2022-09-28T14:08:09.023Z,68.87
2022-09-28T14:10:57.283Z,64.73
2022-09-28T14:13:45.403Z,57.57
2022-09-28T14:16:33.778Z,51.10
2022-09-28T14:19:34.391Z,55.80
2022-09-28T14:22:34.918Z,60.30
2022-09-28T14:25:24.805Z,49.67
2022-09-28T14:28:31.915Z,19.77
2022-09-28T14:31:29.047Z,28.63
2022-09-28T14:34:43.635Z,30.07
2022-09-28T14:37:58.760Z,34.70
2022-09-28T14:41:11.382Z,26.77
2022-09-28T14:44:11.814Z,37.65
2022-09-28T14:47:34.233Z,31.30
2022-09-28T14:50:30.274Z,31.37
2022-09-28T14:53:22.165Z,28.43
2022-09-28T14:56:09.141Z,29.80
2022-09-28T14:58:57.002Z,30.07
2022-09-28T15:01:50.676Z,33.37
2022-09-28T15:07:29.667Z,27.20
2022-09-28T15:10:31.510Z,28.87
2022-09-28T15:13:27.298Z,28.43
2022-09-28T15:16:15.486Z,36.73
2022-09-28T15:19:30.176Z,18.20
2022-09-28T15:22:20.098Z,27.13
2022-09-28T15:25:14.672Z,19.87
2022-09-28T15:28:03.505Z,20.80
2022-09-28T15:30:50.068Z,18.50
2022-09-28T15:33:54.307Z,22.67
2022-09-28T15:36:42.349Z,25.45
2022-09-28T15:39:32.176Z,21.10
2022-09-28T15:42:18.730Z,20.00
2022-09-28T15:45:22.230Z,17.37
2022-09-28T15:48:31.025Z,21.87
2022-09-28T15:51:16.310Z,20.80
2022-09-28T15:54:16.441Z,20.40
2022-09-28T15:57:03.072Z,14.80
2022-09-28T15:59:56.888Z,19.37
2022-09-28T16:03:00.387Z,15.27
2022-09-28T16:06:05.485Z,12.65
2022-09-28T16:08:50.963Z,18.23
2022-09-28T16:11:40.598Z,15.63
2022-09-28T16:14:27.270Z,17.90
2022-09-28T16:17:32.813Z,16.80
2022-09-28T16:20:31.964Z,14.33
2022-09-28T16:23:22.845Z,9.43
2022-09-28T16:26:25.387Z,13.63
2022-09-28T16:29:39.922Z,14.00
2022-09-28T16:32:25.547Z,10.38
2022-09-28T16:35:13.697Z,13.53
2022-09-28T16:38:11.173Z,16.10
2022-09-28T16:41:02.019Z,19.83
2022-09-28T16:43:47.677Z,14.70
2022-09-28T16:46:37.715Z,11.80
2022-09-28T16:49:25.439Z,12.07
2022-09-28T16:52:34.452Z,12.60
2022-09-28T16:55:39.648Z,13.63
2022-09-28T16:58:25.644Z,9.77
2022-09-28T17:01:12.488Z,15.17
2022-09-28T17:03:57.929Z,10.57
2022-09-28T17:06:43.616Z,7.70
2022-09-28T17:09:29.637Z,11.13
2022-09-28T17:12:22.961Z,12.90
2022-09-28T17:15:08.735Z,8.13
2022-09-28T17:17:55.926Z,12.83
2022-09-28T17:20:44.184Z,10.50
2022-09-28T17:23:29.450Z,8.70
2022-09-28T17:26:24.599Z,10.73
2022-09-28T17:29:14.640Z,10.40
2022-09-28T17:32:00.449Z,9.40
2022-09-28T17:34:55.945Z,8.80
2022-09-28T17:37:53.294Z,10.33
2022-09-28T17:40:40.783Z,8.60
2022-09-28T17:43:26.456Z,11.97
2022-09-28T17:46:27.366Z,10.07
2022-09-28T17:49:12.967Z,9.80
2022-09-28T17:51:58.646Z,11.90
2022-09-28T17:54:44.596Z,8.93
2022-09-28T17:57:31.144Z,6.87
2022-09-28T18:00:17.782Z,9.23
2022-09-28T18:03:03.788Z,10.43
2022-09-28T18:05:58.457Z,11.00
2022-09-28T18:08:44.478Z,6.37
2022-09-28T18:11:31.738Z,8.17
2022-09-28T18:14:17.270Z,7.77
2022-09-28T18:17:02.728Z,9.53
2022-09-28T18:19:48.154Z,10.30
2022-09-28T18:22:33.877Z,7.93
2022-09-28T18:25:19.798Z,11.10
2022-09-28T18:28:05.774Z,8.13
2022-09-28T18:30:51.786Z,7.17
2022-09-28T18:33:37.921Z,6.70
2022-09-28T18:36:28.880Z,7.80
2022-09-28T18:39:14.754Z,9.73
2022-09-28T18:42:00.898Z,10.07
2022-09-28T18:44:46.370Z,6.70
2022-09-28T18:47:33.501Z,8.63
2022-09-28T18:50:19.499Z,9.23
2022-09-28T18:53:13.999Z,8.13
2022-09-28T18:56:05.575Z,5.50
2022-09-28T18:58:54.042Z,7.43
2022-09-28T19:01:42.197Z,5.83
2022-09-28T19:04:27.678Z,5.87
2022-09-28T19:07:13.136Z,8.07
2022-09-28T19:09:58.559Z,6.67
2022-09-28T19:12:43.989Z,5.10
2022-09-28T19:15:29.328Z,5.43
2022-09-28T19:18:15.259Z,9.70
2022-09-28T19:21:08.877Z,6.30
2022-09-28T19:23:55.610Z,7.83
2022-09-28T19:26:41.816Z,7.57
2022-09-28T19:29:27.419Z,7.63
2022-09-28T19:32:13.111Z,6.27
2022-09-28T19:34:58.642Z,7.83
2022-09-28T19:37:46.655Z,8.63
2022-09-28T19:40:32.005Z,11.47
2022-09-28T19:43:18.485Z,6.57
2022-09-28T19:46:08.757Z,4.80
2022-09-28T19:48:56.601Z,4.73
2022-09-28T19:51:51.646Z,7.60
2022-09-28T19:54:56.911Z,6.03
2022-09-28T19:57:46.341Z,5.03
2022-09-28T20:00:31.771Z,6.40
2022-09-28T20:03:18.650Z,7.10
2022-09-28T20:06:03.965Z,8.47
2022-09-28T20:08:49.725Z,5.50
2022-09-28T20:11:35.943Z,4.27
2022-09-28T20:14:23.445Z,6.80
2022-09-28T20:17:11.242Z,4.17
2022-09-28T20:19:57.634Z,4.93
2022-09-28T20:22:43.926Z,5.47
2022-09-28T20:25:29.426Z,5.17
2022-09-28T20:28:16.136Z,6.07
2022-09-28T20:31:12.048Z,6.60
2022-09-28T20:33:57.640Z,5.47
2022-09-28T20:36:44.598Z,3.47
2022-09-28T20:39:30.286Z,4.73
2022-09-28T20:42:16.598Z,5.40
2022-09-28T20:45:02.036Z,6.37
2022-09-28T20:47:47.266Z,5.50
2022-09-28T20:50:33.899Z,5.60
2022-09-28T20:53:19.196Z,5.20
2022-09-28T20:56:10.373Z,6.17
2022-09-28T20:58:56.959Z,5.70
2022-09-28T21:01:42.222Z,5.27
2022-09-28T21:04:27.628Z,6.13
2022-09-28T21:07:12.831Z,9.23
2022-09-28T21:09:57.996Z,4.67
2022-09-28T21:12:48.174Z,5.53
2022-09-28T21:15:33.842Z,5.20
2022-09-28T21:18:20.500Z,3.87
2022-09-28T21:21:12.000Z,4.57
2022-09-28T21:23:58.123Z,4.17
2022-09-28T21:26:43.660Z,4.67
2022-09-28T21:29:29.254Z,4.43
2022-09-28T21:32:15.016Z,4.03
2022-09-28T21:35:00.490Z,3.07
2022-09-28T21:37:46.270Z,4.33
2022-09-28T21:40:31.892Z,4.50
2022-09-28T21:43:17.249Z,5.70
2022-09-28T21:46:02.899Z,4.47
2022-09-28T21:48:53.041Z,4.93
2022-09-28T21:51:38.554Z,3.97
2022-09-28T21:54:23.919Z,4.97
2022-09-28T21:57:09.752Z,3.93
2022-09-28T21:59:55.211Z,4.43
2022-09-28T22:02:41.509Z,4.33
2022-09-28T22:05:28.123Z,3.27
2022-09-28T22:08:13.926Z,3.63
2022-09-28T22:11:05.713Z,3.07
2022-09-28T22:13:53.943Z,4.53
2022-09-28T22:16:38.971Z,3.17
2022-09-28T22:19:24.262Z,4.37
2022-09-28T22:22:09.602Z,3.83
2022-09-28T22:24:56.195Z,4.63
2022-09-28T22:27:41.847Z,4.40
2022-09-28T22:30:27.258Z,4.00
2022-09-28T22:33:12.556Z,3.73
2022-09-28T22:35:57.918Z,3.63
2022-09-28T22:38:44.670Z,2.73
2022-09-28T22:41:30.131Z,3.50
2022-09-28T22:44:15.834Z,4.17
2022-09-28T22:47:01.401Z,3.73
2022-09-28T22:49:46.848Z,2.27
2022-09-28T22:52:32.366Z,4.57
2022-09-28T22:55:17.585Z,3.60
2022-09-28T22:58:02.813Z,3.77
2022-09-28T23:00:48.453Z,4.10
2022-09-28T23:03:35.005Z,3.00
2022-09-28T23:06:23.265Z,2.20
2022-09-28T23:09:09.027Z,2.43
2022-09-28T23:11:54.454Z,4.17
2022-09-28T23:14:39.497Z,3.00
2022-09-28T23:17:24.731Z,3.20
2022-09-28T23:20:10.064Z,2.97
2022-09-28T23:22:55.644Z,3.33
2022-09-28T23:25:40.775Z,3.63
2022-09-28T23:28:27.194Z,3.40
2022-09-28T23:31:35.863Z,2.63
2022-09-28T23:34:21.585Z,3.10
2022-09-28T23:37:06.819Z,3.73
2022-09-28T23:39:52.171Z,3.00
2022-09-28T23:42:37.415Z,2.63
2022-09-28T23:45:22.807Z,3.03
2022-09-28T23:48:07.954Z,3.93
2022-09-28T23:50:53.414Z,3.33
2022-09-28T23:53:38.739Z,2.27
2022-09-28T23:56:24.152Z,4.50
2022-09-28T23:59:09.549Z,4.57
